Latest Weather Observations for Mount Baw Baw

IDV60801

Issued at 9:05 pm EST Monday 1 September 2014 (issued every 30 minutes, with the page automatically refreshed every 10 minutes)

About weather observations | Map of weather stations | Latest weather observations for VIC | Other Formats
Station Details ID: 085291 Name: MOUNT BAW BAW Lat: -37.84 Lon: 146.27 Height: 1561.0 m
Data from the previous 72 hours. | See also: Recent months at Mount Baw Baw
Date/Time
EST
Temp
°C
App
Temp
°C
Dew
Point
Rel
Hum
%
Delta-T
°C
Wind Press
QNH
hPa
Press
MSL
hPa
Rain
since 9 am
mm
Dir
 
Spd
km/h
Gust
km/h
Spd
kts
Gust
kts
01/09:00pm -0.3 -6.9 -0.4 99 0.0 WSW 24 35 - 19 - - 11.4
01/08:30pm -0.1 -5.3 -0.2 99 0.0 WSW 17 24 - 13 - - 10.2
01/08:00pm -0.1 -5.7 -0.2 99 0.0 WSW 19 26 - 14 - - 9.0
01/07:30pm -0.2 -5.5 -0.3 99 0.0 WSW 17 22 - 12 - - 8.2
01/07:00pm -0.2 -4.7 -0.3 99 0.0 WSW 13 19 - 10 - - 7.4
01/06:30pm -0.2 -5.5 -0.3 99 0.0 WSW 17 24 - 13 - - 5.8
01/06:00pm 0.0 -4.8 -0.1 99 0.0 W 15 24 - 13 - - 4.4
01/05:30pm 0.7 -4.0 0.6 99 0.0 W 15 22 - 12 - - 3.6
01/05:00pm 0.9 -4.2 0.8 99 0.0 W 17 30 - 16 - - 2.6
01/04:30pm 1.0 -4.5 0.9 99 0.0 WNW 19 32 - 17 - - 1.8
01/04:00pm 1.0 -4.5 0.9 99 0.0 W 19 26 - 14 - - 1.8
01/03:30pm 0.9 -3.4 0.8 99 0.0 NW 13 24 - 13 - - 1.4
01/03:00pm 1.6 -3.0 1.5 99 0.0 NNW 15 30 - 16 - - 0.6
01/02:30pm 2.4 -2.2 1.5 94 0.4 NW 15 32 - 17 - - 0.0
01/02:00pm 4.0 -0.7 1.0 81 1.3 WNW 15 28 - 15 - - 0.0
01/01:30pm 5.4 0.2 0.4 70 2.1 NW 17 30 - 16 - - 0.0
01/01:00pm 6.1 1.7 0.2 66 2.5 NW 13 30 - 16 - - 0.0
01/12:30pm 6.8 1.9 -0.2 61 3.0 WNW 15 30 - 16 - - 0.0
01/12:00pm 6.1 0.4 -0.8 61 2.9 NW 19 37 - 20 - - 0.0
01/11:30am 7.2 1.5 -1.0 56 3.5 NNW 19 37 - 20 - - 0.0
01/11:00am 5.8 0.1 -0.9 62 2.8 NNW 19 35 - 19 - - 0.0
01/10:30am 7.2 1.3 -1.0 56 3.5 NNW 20 50 - 27 - - 0.0
01/10:00am 7.2 1.4 -0.3 59 3.2 NNW 20 43 - 23 - - 0.0
01/09:30am 5.6 -1.1 -0.9 63 2.7 N 24 50 - 27 - - 0.0
01/09:00am 5.2 -0.6 -0.4 67 2.3 N 20 39 - 21 - - 0.0
01/08:30am 4.9 -1.7 -0.3 69 2.2 N 24 44 - 24 - - 0.0
01/08:00am 4.5 -2.1 -0.3 71 2.0 N 24 48 - 26 - - 0.0
01/07:30am 3.8 -1.7 0.3 78 1.5 N 19 37 - 20 - - 0.0
01/07:00am 3.8 -1.4 0.3 78 1.5 NNE 17 28 - 15 - - 0.0
01/06:30am 4.4 -1.2 -0.2 72 1.9 N 19 35 - 19 - - 0.0
01/06:00am 4.4 -0.8 -0.2 72 1.9 N 17 33 - 18 - - 0.0
01/05:30am 4.4 -1.4 0.0 73 1.8 N 20 39 - 21 - - 0.0
01/05:00am 4.4 -1.2 0.0 73 1.8 N 19 35 - 19 - - 0.0
01/04:30am 4.5 -1.3 0.1 73 1.9 N 20 41 - 22 - - 0.0
01/04:00am 4.5 -1.3 0.1 73 1.9 N 20 41 - 22 - - 0.0
01/03:30am 4.6 -1.5 0.2 73 1.9 N 22 43 - 23 - - 0.0
01/03:00am 4.7 -1.8 0.1 72 1.9 N 24 44 - 24 - - 0.0
01/02:30am 5.1 -1.1 -0.1 69 2.2 N 22 44 - 24 - - 0.0
01/02:00am 5.1 -0.7 0.1 70 2.1 N 20 35 - 19 - - 0.0
01/01:30am 5.1 -0.1 0.1 70 2.1 N 17 41 - 22 - - 0.0
01/01:00am 5.2 0.0 0.2 70 2.1 N 17 33 - 18 - - 0.0
01/12:30am 5.5 -0.1 0.1 68 2.3 N 19 35 - 19 - - 0.0
01/12:00am 5.6 0.0 0.2 68 2.3 N 19 39 - 21 - - 0.0
 
Date/Time
EST
Temp
°C
App
Temp
°C
Dew
Point
Rel
Hum
%
Delta-T
°C
Wind Press
QNH
hPa
Press
MSL
hPa
Rain
since 9 am
mm
Dir
 
Spd
km/h
Gust
km/h
Spd
kts
Gust
kts
31/11:30pm 5.6 0.4 0.0 67 2.4 N 17 30 - 16 - - 0.0
31/11:00pm 5.7 0.5 0.1 67 2.4 NNW 17 33 - 18 - - 0.0
31/10:30pm 5.7 0.1 -0.1 66 2.5 NNW 19 37 - 20 - - 0.0
31/10:00pm 5.7 0.4 -0.6 64 2.6 NNW 17 32 - 17 - - 0.0
31/09:30pm 5.3 0.0 -0.3 67 2.4 NNW 17 33 - 18 - - 0.0
31/09:00pm 4.8 -0.3 0.9 76 1.7 N 17 28 - 15 - - 0.0
31/08:30pm 4.5 -0.1 1.4 80 1.3 N 15 28 - 15 - - 0.0
31/08:00pm 4.5 -0.4 2.0 84 1.1 N 17 30 - 16 - - 0.0
31/07:30pm 4.9 1.0 1.0 76 1.7 N 11 22 - 12 - - 0.0
31/07:00pm 5.0 1.5 1.5 78 1.5 N 9 19 - 10 - - 0.0
31/06:30pm 5.0 1.2 2.0 81 1.3 N 11 19 - 10 - - 0.0
31/06:00pm 5.0 1.7 2.5 84 1.1 NNE 9 19 - 10 - - 0.0
31/05:30pm 5.5 2.2 2.5 81 1.4 N 9 17 - 9 - - 0.0
31/05:00pm 5.9 3.0 2.5 79 1.5 N 7 15 - 8 - - 0.0
31/04:30pm 6.3 3.6 2.4 76 1.8 NNE 6 9 - 5 - - 0.0
31/04:00pm 7.5 4.6 1.4 65 2.7 NNW 6 11 - 6 - - 0.0
31/03:30pm 8.4 5.2 0.9 59 3.3 N 7 17 - 9 - - 0.0
31/03:00pm 9.1 5.8 0.3 54 3.9 WNW 7 20 - 11 - - 0.0
31/02:30pm 8.6 5.0 0.3 56 3.7 WNW 9 22 - 12 - - 0.0
31/02:00pm 10.0 6.0 -2.3 42 5.2 NNW 9 19 - 10 - - 0.0
31/01:30pm 9.6 5.8 -1.1 47 4.6 WNW 9 17 - 9 - - 0.0
31/01:00pm 9.8 5.8 -2.2 43 5.1 W 9 17 - 9 - - 0.0
31/12:30pm 9.4 5.6 -0.5 50 4.3 NW 9 15 - 8 - - 0.0
31/12:00pm 8.9 5.3 0.6 56 3.7 NW 9 19 - 10 - - 0.0
31/11:30am 8.9 5.3 0.9 57 3.6 NW 9 20 - 11 - - 0.0
31/11:00am 8.5 4.8 0.2 56 3.6 NNW 9 15 - 8 - - 0.0
31/10:30am 7.9 4.2 0.2 58 3.4 NNW 9 19 - 10 - - 0.0
31/10:00am 7.6 4.1 1.2 64 2.9 NNW 9 15 - 8 - - 0.0
31/09:30am 6.3 2.8 1.0 69 2.3 NNW 9 17 - 9 - - 0.0
31/09:00am 5.3 1.7 0.7 72 2.0 NW 9 17 - 9 - - 0.0
31/08:30am 4.5 0.5 0.6 76 1.7 NNW 11 17 - 9 - - 0.0
31/08:00am 3.9 -0.1 0.4 78 1.5 WNW 11 20 - 11 - - 0.0
31/07:30am 3.7 -0.7 0.1 77 1.5 WNW 13 20 - 11 - - 0.0
31/07:00am 3.8 -0.4 -1.2 70 2.0 WNW 11 17 - 9 - - 0.0
31/06:30am 3.8 -0.5 -2.0 66 2.3 WNW 11 17 - 9 - - 0.0
31/06:00am 3.6 -1.1 -1.7 68 2.1 WNW 13 17 - 9 - - 0.0
31/05:30am 3.5 -0.8 -1.6 69 2.0 WNW 11 15 - 8 - - 0.0
31/05:00am 3.4 -1.0 -2.5 65 2.3 WNW 11 20 - 11 - - 0.0
31/04:30am 3.7 -1.3 -4.7 54 3.1 W 13 19 - 10 - - 0.0
31/04:00am 4.3 -0.6 -7.2 43 4.0 WNW 11 20 - 11 - - 0.0
31/03:30am 4.2 -0.7 -7.5 42 4.1 W 11 17 - 9 - - 0.0
31/03:00am 4.5 0.0 -7.0 43 4.1 NNW 9 15 - 8 - - 0.0
31/02:30am 4.6 0.1 -7.2 42 4.1 NNW 9 13 - 7 - - 0.0
31/02:00am 4.1 -0.6 -5.4 50 3.5 N 11 17 - 9 - - 0.0
31/01:30am 4.2 -0.1 -4.5 53 3.3 N 9 15 - 8 - - 0.0
31/01:00am 4.1 -0.2 -4.4 54 3.2 NNE 9 15 - 8 - - 0.0
31/12:30am 4.1 -0.1 -4.1 55 3.1 NNE 9 15 - 8 - - 0.0
31/12:00am 4.2 0.0 -4.3 54 3.2 NNW 9 15 - 8 - - 0.0
 
Date/Time
EST
Temp
°C
App
Temp
°C
Dew
Point
Rel
Hum
%
Delta-T
°C
Wind Press
QNH
hPa
Press
MSL
hPa
Rain
since 9 am
mm
Dir
 
Spd
km/h
Gust
km/h
Spd
kts
Gust
kts
30/11:30pm 4.0 0.0 -2.2 64 2.5 NNW 9 13 - 7 - - 0.0
30/11:00pm 4.2 0.1 -3.3 58 2.9 N 9 13 - 7 - - 0.0
30/10:30pm 4.1 1.0 0.3 76 1.6 N 6 7 - 4 - - 0.0
30/10:00pm 4.2 2.3 0.5 77 1.6 CALM 0 0 - 0 - - 0.0
30/09:30pm 4.1 1.2 -0.9 70 2.0 ENE 4 6 - 3 - - 0.0
30/09:00pm 3.8 1.3 -1.0 71 2.0 NE 2 6 - 3 - - 0.0
30/08:30pm 4.2 1.5 2.7 90 0.7 NE 6 9 - 5 - - 0.0
30/08:00pm 4.2 1.5 2.9 91 0.6 N 6 7 - 4 - - 0.0
30/07:30pm 4.3 1.8 3.9 97 0.2 WNW 6 9 - 5 - - 0.0
30/07:00pm 4.5 2.1 4.1 97 0.2 WNW 6 7 - 4 - - 0.0
30/06:30pm 5.0 2.7 4.6 97 0.2 NW 6 9 - 5 - - 0.0
30/06:00pm 5.4 3.0 4.1 91 0.6 WNW 6 7 - 4 - - 0.0
30/05:30pm 6.5 4.0 3.8 83 1.3 W 6 9 - 5 - - 0.0
30/05:00pm 7.6 5.6 4.6 81 1.4 W 4 9 - 5 - - 0.0
30/04:30pm 7.0 4.5 5.0 87 1.0 SW 7 11 - 6 - - 0.0
30/04:00pm 6.4 3.9 4.6 88 0.9 SW 7 9 - 5 - - 0.0
30/03:30pm 6.3 3.3 4.3 87 0.9 SW 9 15 - 8 - - 0.0
30/03:00pm 7.3 4.0 2.6 72 2.2 WSW 9 13 - 7 - - 0.0
30/02:30pm 7.5 4.1 2.0 68 2.5 SSW 9 15 - 8 - - 0.0
30/02:00pm 8.3 5.0 2.5 67 2.7 SW 9 17 - 9 - - 0.0
30/01:30pm 8.8 5.1 2.4 64 3.0 SW 11 15 - 8 - - 0.0
30/01:00pm 8.2 4.5 0.0 56 3.6 SW 9 13 - 7 - - 0.0
30/12:30pm 7.8 3.9 -1.2 53 3.8 WSW 9 13 - 7 - - 0.0
30/12:00pm 8.5 5.1 -2.4 46 4.5 SW 6 11 - 6 - - 0.0
30/11:30am 8.7 5.6 -2.6 45 4.7 SSW 4 13 - 7 - - 0.0
30/11:00am 8.0 5.0 -2.0 49 4.2 WSW 4 11 - 6 - - 0.0
30/10:30am 8.4 4.6 -5.4 37 5.3 NW 6 9 - 5 - - 0.0
30/10:00am 9.2 5.5 -4.4 38 5.4 NE 6 11 - 6 - - 0.0
30/09:30am 8.6 4.9 -4.2 40 5.1 NNE 6 13 - 7 - - 0.0
30/09:00am 7.3 3.2 -6.4 37 5.1 N 7 11 - 6 - - 0.0
30/08:30am 7.1 3.1 -7.7 34 5.3 NNE 6 11 - 6 - - 0.0
30/08:00am 6.8 2.4 -10.4 28 5.8 NNE 7 11 - 6 - - 0.0
30/07:30am 5.9 1.4 -11.6 27 5.6 NNE 7 9 - 5 - - 0.0
30/07:00am 5.0 0.4 -12.9 26 5.8 NNE 7 11 - 6 - - 0.0
30/06:30am 4.4 -0.1 -12.0 29 5.4 NNE 7 11 - 6 - - 0.0
30/06:00am 4.6 0.1 -11.9 29 5.4 NE 7 11 - 6 - - 0.0
30/05:30am 4.6 0.1 -11.0 31 5.3 NE 7 9 - 5 - - 0.0
30/05:00am 4.3 0.0 -8.4 39 4.6 NE 7 11 - 6 - - 0.0
30/04:30am 3.7 -0.9 -8.0 42 4.2 NE 9 15 - 8 - - 0.0
30/04:00am 3.6 -1.4 -8.4 41 4.3 NE 11 15 - 8 - - 0.0
30/03:30am 3.7 -1.3 -8.0 42 4.2 NE 11 15 - 8 - - 0.0
30/03:00am 3.9 -1.0 -6.9 45 3.8 NE 11 17 - 9 - - 0.0
30/02:30am 3.9 -0.9 -6.4 47 3.7 NE 11 15 - 8 - - 0.0
30/02:00am 3.8 -1.1 -7.3 44 4.1 NE 11 17 - 9 - - 0.0
30/01:30am 3.3 -1.7 -4.6 56 2.9 NE 13 17 - 9 - - 0.0
30/01:00am 4.1 -1.0 -5.4 50 3.5 NE 13 19 - 10 - - 0.0
30/12:30am 4.0 -1.0 -4.7 53 3.2 NNE 13 19 - 10 - - 0.0
30/12:00am 4.1 -1.0 -5.1 51 3.4 ENE 13 20 - 11 - - 0.0
 
Date/Time
EST
Temp
°C
App
Temp
°C
Dew
Point
Rel
Hum
%
Delta-T
°C
Wind Press
QNH
hPa
Press
MSL
hPa
Rain
since 9 am
mm
Dir
 
Spd
km/h
Gust
km/h
Spd
kts
Gust
kts
29/11:30pm 4.5 -0.8 -7.0 43 4.1 ENE 13 20 - 11 - - 0.0
29/11:00pm 4.3 -1.2 -9.1 37 4.7 ENE 13 19 - 10 - - 0.0
29/10:30pm 3.7 -1.6 -7.1 45 4.0 ENE 13 17 - 9 - - 0.0
29/10:00pm 3.1 -2.1 -5.8 52 3.4 ENE 13 19 - 10 - - 0.0
29/09:30pm 3.7 -1.4 -8.9 39 4.4 ENE 11 19 - 10 - - 0.0

Other Formats:

Comma delimited format used in spreadsheet applications
http://www.bom.gov.au/fwo/IDV60801/IDV60801.95901.axf

JavaScript Object Notation format (JSON) in row-major order
http://www.bom.gov.au/fwo/IDV60801/IDV60801.95901.json